ETD611 OMAA-OEJN
Flight info
| Callsign | ETD611 |
|---|---|
| Flight time | 2h 40m |
| Altitude | 40000 |
| Route | BOSEV N563 ALPOB L768 ULADA T136 OTISU N112 GETOT Q212 KIA G782 VEMEM |
| Aircraft | A359/H-SDE2E3GHIJ3J4J5LM1ORWXY/LB1D1 |
Departure
| Time | 2026-05-08 04:03 |
|---|---|
| Airport | Zayed International Airport (OMAA) |
Arrival
| Time | 2026-05-08 06:44 |
|---|---|
| Airport | King Abdulaziz International Airport (OEJN) |
| Time | Latitude | Longitude | Altitude | Speed | Heading |
|---|---|---|---|---|---|
| 2026-05-08 03:42 | 24.44726 | 54.64445 | 98 ft | 0 kts | 252° |
| 2026-05-08 03:46 | 24.44727 | 54.64445 | 98 ft | 2 kts | 252° |
| 2026-05-08 03:46 | 24.44732 | 54.64462 | 99 ft | 2 kts | 252° |
| 2026-05-08 03:46 | 24.44737 | 54.64480 | 98 ft | 2 kts | 253° |
| 2026-05-08 03:47 | 24.44741 | 54.64497 | 96 ft | 2 kts | 253° |
| 2026-05-08 03:47 | 24.44750 | 54.64513 | 98 ft | 2 kts | 224° |
| 2026-05-08 03:47 | 24.44763 | 54.64523 | 97 ft | 2 kts | 207° |
| 2026-05-08 03:47 | 24.44779 | 54.64529 | 97 ft | 2 kts | 184° |
| 2026-05-08 03:48 | 24.44795 | 54.64526 | 96 ft | 2 kts | 160° |
| 2026-05-08 03:48 | 24.44806 | 54.64521 | 99 ft | 1 kts | 159° |
| 2026-05-08 03:53 | 24.44805 | 54.64522 | 98 ft | 1 kts | 159° |
| 2026-05-08 03:53 | 24.44774 | 54.64534 | 100 ft | 8 kts | 159° |
| 2026-05-08 03:53 | 24.44711 | 54.64571 | 99 ft | 12 kts | 146° |
| 2026-05-08 03:54 | 24.44639 | 54.64643 | 100 ft | 16 kts | 129° |
| 2026-05-08 03:54 | 24.44580 | 54.64715 | 100 ft | 12 kts | 147° |
| 2026-05-08 03:54 | 24.44513 | 54.64699 | 99 ft | 11 kts | 212° |
| 2026-05-08 03:54 | 24.44441 | 54.64641 | 101 ft | 14 kts | 218° |
| 2026-05-08 03:55 | 24.44355 | 54.64566 | 100 ft | 17 kts | 218° |
| 2026-05-08 03:55 | 24.44278 | 54.64482 | 99 ft | 13 kts | 246° |
| 2026-05-08 03:55 | 24.44234 | 54.64393 | 101 ft | 14 kts | 225° |
| 2026-05-08 03:55 | 24.44148 | 54.64399 | 99 ft | 15 kts | 133° |
| 2026-05-08 03:56 | 24.44077 | 54.64498 | 100 ft | 18 kts | 128° |
| 2026-05-08 03:56 | 24.43993 | 54.64616 | 99 ft | 21 kts | 128° |
| 2026-05-08 03:56 | 24.43898 | 54.64750 | 98 ft | 24 kts | 128° |
| 2026-05-08 03:56 | 24.43791 | 54.64900 | 100 ft | 26 kts | 128° |
| 2026-05-08 03:57 | 24.43675 | 54.65064 | 101 ft | 28 kts | 128° |
| 2026-05-08 03:57 | 24.43550 | 54.65238 | 100 ft | 30 kts | 128° |
| 2026-05-08 03:57 | 24.43419 | 54.65423 | 102 ft | 32 kts | 128° |
| 2026-05-08 03:57 | 24.43281 | 54.65617 | 100 ft | 30 kts | 128° |
| 2026-05-08 03:58 | 24.43183 | 54.65755 | 100 ft | 19 kts | 128° |
| 2026-05-08 03:58 | 24.43105 | 54.65865 | 100 ft | 18 kts | 128° |
| 2026-05-08 03:58 | 24.43026 | 54.65977 | 100 ft | 19 kts | 128° |
| 2026-05-08 03:58 | 24.42960 | 54.66069 | 101 ft | 14 kts | 128° |
| 2026-05-08 03:59 | 24.42892 | 54.66165 | 100 ft | 18 kts | 128° |
| 2026-05-08 03:59 | 24.42811 | 54.66279 | 100 ft | 20 kts | 128° |
| 2026-05-08 03:59 | 24.42719 | 54.66409 | 98 ft | 23 kts | 128° |
| 2026-05-08 03:59 | 24.42616 | 54.66555 | 100 ft | 25 kts | 128° |
| 2026-05-08 04:00 | 24.42511 | 54.66703 | 102 ft | 18 kts | 128° |
| 2026-05-08 04:00 | 24.42436 | 54.66809 | 101 ft | 19 kts | 128° |
| 2026-05-08 04:00 | 24.42364 | 54.66852 | 101 ft | 12 kts | 189° |
| 2026-05-08 04:00 | 24.42315 | 54.66824 | 101 ft | 0 kts | 216° |
| 2026-05-08 04:01 | 24.42314 | 54.66823 | 101 ft | 1 kts | 216° |
| 2026-05-08 04:01 | 24.42302 | 54.66813 | 100 ft | 4 kts | 216° |
| 2026-05-08 04:02 | 24.42265 | 54.66783 | 99 ft | 9 kts | 217° |
| 2026-05-08 04:02 | 24.42211 | 54.66732 | 98 ft | 9 kts | 233° |
| 2026-05-08 04:02 | 24.42214 | 54.66662 | 99 ft | 11 kts | 297° |
| 2026-05-08 04:02 | 24.42227 | 54.66640 | 99 ft | 0 kts | 306° |
| 2026-05-08 04:03 | 24.42229 | 54.66637 | 99 ft | 7 kts | 306° |
| 2026-05-08 04:03 | 24.43082 | 54.65431 | 103 ft | 188 kts | 308° |
| 2026-05-08 04:03 | 24.43945 | 54.64197 | 860 ft | 207 kts | 305° |
| 2026-05-08 04:04 | 24.44835 | 54.62923 | 1924 ft | 220 kts | 308° |
| 2026-05-08 04:04 | 24.45835 | 54.61531 | 2764 ft | 240 kts | 307° |
| 2026-05-08 04:04 | 24.46897 | 54.60074 | 3266 ft | 250 kts | 307° |
| 2026-05-08 04:04 | 24.47998 | 54.58531 | 3681 ft | 262 kts | 306° |
| 2026-05-08 04:05 | 24.49118 | 54.56942 | 4248 ft | 266 kts | 306° |
| 2026-05-08 04:05 | 24.50260 | 54.55324 | 4830 ft | 269 kts | 307° |
| 2026-05-08 04:05 | 24.51414 | 54.53690 | 5406 ft | 272 kts | 306° |
| 2026-05-08 04:05 | 24.52578 | 54.52043 | 6004 ft | 275 kts | 307° |
| 2026-05-08 04:06 | 24.53762 | 54.50375 | 6562 ft | 278 kts | 307° |
| 2026-05-08 04:06 | 24.54953 | 54.48691 | 7060 ft | 281 kts | 307° |
| 2026-05-08 04:06 | 24.56141 | 54.47010 | 7596 ft | 284 kts | 307° |
| 2026-05-08 04:06 | 24.57371 | 54.45268 | 8178 ft | 286 kts | 307° |
| 2026-05-08 04:07 | 24.58599 | 54.43531 | 8694 ft | 289 kts | 307° |
| 2026-05-08 04:07 | 24.59818 | 54.41805 | 8969 ft | 290 kts | 306° |
| 2026-05-08 04:07 | 24.61057 | 54.40052 | 9010 ft | 291 kts | 306° |
| 2026-05-08 04:07 | 24.62304 | 54.38294 | 9010 ft | 292 kts | 306° |
| 2026-05-08 04:08 | 24.63554 | 54.36530 | 9009 ft | 293 kts | 306° |
| 2026-05-08 04:08 | 24.64809 | 54.34766 | 9103 ft | 293 kts | 307° |
| 2026-05-08 04:08 | 24.66070 | 54.32987 | 9535 ft | 296 kts | 306° |
| 2026-05-08 04:08 | 24.67338 | 54.31195 | 10088 ft | 298 kts | 307° |
| 2026-05-08 04:09 | 24.68633 | 54.29363 | 10349 ft | 311 kts | 307° |
| 2026-05-08 04:09 | 24.69993 | 54.27441 | 10542 ft | 326 kts | 307° |
| 2026-05-08 04:09 | 24.71414 | 54.25431 | 10715 ft | 339 kts | 307° |
| 2026-05-08 04:09 | 24.72888 | 54.23348 | 10894 ft | 352 kts | 307° |
| 2026-05-08 04:10 | 24.74415 | 54.21189 | 11058 ft | 363 kts | 307° |
| 2026-05-08 04:10 | 24.75988 | 54.18964 | 11241 ft | 373 kts | 307° |
| 2026-05-08 04:10 | 24.77598 | 54.16686 | 11531 ft | 379 kts | 307° |
| 2026-05-08 04:10 | 24.79222 | 54.14386 | 11878 ft | 382 kts | 307° |
| 2026-05-08 04:11 | 24.80861 | 54.12065 | 12227 ft | 386 kts | 308° |
| 2026-05-08 04:11 | 24.82515 | 54.09719 | 12572 ft | 389 kts | 308° |
| 2026-05-08 04:11 | 24.84125 | 54.07308 | 12918 ft | 392 kts | 304° |
| 2026-05-08 04:11 | 24.85637 | 54.04789 | 13260 ft | 396 kts | 302° |
| 2026-05-08 04:12 | 24.87095 | 54.02208 | 13606 ft | 399 kts | 301° |
| 2026-05-08 04:12 | 24.88538 | 53.99584 | 13915 ft | 401 kts | 301° |
| 2026-05-08 04:12 | 24.89978 | 53.96950 | 14285 ft | 402 kts | 301° |
| 2026-05-08 04:12 | 24.91407 | 53.94346 | 14649 ft | 403 kts | 301° |
| 2026-05-08 04:13 | 24.92866 | 53.91705 | 15008 ft | 404 kts | 301° |
| 2026-05-08 04:13 | 24.94337 | 53.89058 | 15380 ft | 406 kts | 301° |
| 2026-05-08 04:13 | 24.95817 | 53.86406 | 15735 ft | 407 kts | 301° |
| 2026-05-08 04:13 | 24.97305 | 53.83745 | 16090 ft | 409 kts | 301° |
| 2026-05-08 04:14 | 24.98798 | 53.81074 | 16466 ft | 410 kts | 301° |
| 2026-05-08 04:14 | 25.00298 | 53.78392 | 16814 ft | 412 kts | 301° |
| 2026-05-08 04:14 | 25.01975 | 53.75826 | 17168 ft | 414 kts | 310° |
| 2026-05-08 04:14 | 25.03904 | 53.73463 | 17523 ft | 416 kts | 313° |
| 2026-05-08 04:15 | 25.05928 | 53.71175 | 17883 ft | 417 kts | 314° |
| 2026-05-08 04:15 | 25.08006 | 53.68931 | 18202 ft | 419 kts | 315° |
| 2026-05-08 04:15 | 25.10115 | 53.66697 | 18518 ft | 421 kts | 315° |
| 2026-05-08 04:15 | 25.12233 | 53.64464 | 18816 ft | 422 kts | 315° |
| 2026-05-08 04:16 | 25.14352 | 53.62221 | 19135 ft | 423 kts | 315° |
| 2026-05-08 04:16 | 25.16474 | 53.59962 | 19437 ft | 424 kts | 315° |
| 2026-05-08 04:16 | 25.17881 | 53.58458 | 19630 ft | 425 kts | 315° |
| 2026-05-08 04:16 | 25.20007 | 53.56178 | 19940 ft | 427 kts | 314° |
| 2026-05-08 04:17 | 25.22136 | 53.53888 | 20234 ft | 428 kts | 314° |
| 2026-05-08 04:17 | 25.24271 | 53.51589 | 20533 ft | 429 kts | 314° |
| 2026-05-08 04:17 | 25.26410 | 53.49284 | 20826 ft | 431 kts | 314° |
| 2026-05-08 04:17 | 25.28561 | 53.46967 | 21120 ft | 432 kts | 314° |
| 2026-05-08 04:18 | 25.30717 | 53.44647 | 21400 ft | 433 kts | 314° |
| 2026-05-08 04:18 | 25.32879 | 53.42317 | 21693 ft | 435 kts | 314° |
| 2026-05-08 04:18 | 25.35046 | 53.39978 | 21966 ft | 436 kts | 314° |
| 2026-05-08 04:18 | 25.37218 | 53.37633 | 22236 ft | 437 kts | 314° |
| 2026-05-08 04:19 | 25.39402 | 53.35279 | 22500 ft | 439 kts | 314° |
| 2026-05-08 04:19 | 25.41592 | 53.32922 | 22768 ft | 440 kts | 314° |
| 2026-05-08 04:19 | 25.43787 | 53.30551 | 23034 ft | 442 kts | 314° |
| 2026-05-08 04:19 | 25.45989 | 53.28169 | 23280 ft | 443 kts | 314° |
| 2026-05-08 04:20 | 25.48192 | 53.25785 | 23516 ft | 444 kts | 314° |
| 2026-05-08 04:20 | 25.50408 | 53.23387 | 23734 ft | 446 kts | 314° |
| 2026-05-08 04:20 | 25.52629 | 53.20986 | 23951 ft | 447 kts | 313° |
| 2026-05-08 04:20 | 25.54853 | 53.18573 | 24172 ft | 448 kts | 313° |
| 2026-05-08 04:21 | 25.57079 | 53.16152 | 24397 ft | 449 kts | 313° |
| 2026-05-08 04:21 | 25.59309 | 53.13726 | 24623 ft | 450 kts | 313° |
| 2026-05-08 04:21 | 25.61544 | 53.11293 | 24818 ft | 451 kts | 313° |
| 2026-05-08 04:21 | 25.63784 | 53.08855 | 25046 ft | 452 kts | 313° |
| 2026-05-08 04:22 | 25.66029 | 53.06411 | 25260 ft | 453 kts | 313° |
| 2026-05-08 04:22 | 25.68266 | 53.03951 | 25471 ft | 453 kts | 311° |
| 2026-05-08 04:22 | 25.70288 | 53.01283 | 25698 ft | 451 kts | 303° |
| 2026-05-08 04:22 | 25.71970 | 52.98353 | 25932 ft | 450 kts | 297° |
| 2026-05-08 04:23 | 25.73508 | 52.95329 | 26149 ft | 450 kts | 296° |
| 2026-05-08 04:23 | 25.74983 | 52.92264 | 26389 ft | 451 kts | 295° |
| 2026-05-08 04:23 | 25.76429 | 52.89173 | 26626 ft | 452 kts | 294° |
| 2026-05-08 04:23 | 25.77867 | 52.86073 | 26871 ft | 452 kts | 294° |
| 2026-05-08 04:24 | 25.79309 | 52.82967 | 27107 ft | 454 kts | 294° |
| 2026-05-08 04:24 | 25.80759 | 52.79857 | 27349 ft | 455 kts | 294° |
| 2026-05-08 04:24 | 25.82219 | 52.76740 | 27596 ft | 456 kts | 294° |
| 2026-05-08 04:24 | 25.83666 | 52.73658 | 27838 ft | 457 kts | 294° |
| 2026-05-08 04:25 | 25.85158 | 52.70487 | 28094 ft | 458 kts | 294° |
| 2026-05-08 04:25 | 25.86614 | 52.67393 | 28340 ft | 459 kts | 294° |
| 2026-05-08 04:25 | 25.88093 | 52.64248 | 28593 ft | 460 kts | 294° |
| 2026-05-08 04:25 | 25.89574 | 52.61096 | 28846 ft | 461 kts | 294° |
| 2026-05-08 04:26 | 25.91050 | 52.57929 | 29105 ft | 462 kts | 293° |
| 2026-05-08 04:26 | 25.92483 | 52.54727 | 29339 ft | 463 kts | 292° |
| 2026-05-08 04:26 | 25.93889 | 52.51508 | 29598 ft | 464 kts | 291° |
| 2026-05-08 04:26 | 25.95291 | 52.48278 | 29865 ft | 465 kts | 291° |
| 2026-05-08 04:27 | 25.96698 | 52.45037 | 30083 ft | 466 kts | 291° |
| 2026-05-08 04:27 | 25.98113 | 52.41793 | 30289 ft | 468 kts | 291° |
| 2026-05-08 04:27 | 25.99540 | 52.38540 | 30513 ft | 469 kts | 292° |
| 2026-05-08 04:27 | 26.00984 | 52.35287 | 30733 ft | 470 kts | 292° |
| 2026-05-08 04:28 | 26.02440 | 52.32031 | 30959 ft | 471 kts | 292° |
| 2026-05-08 04:28 | 26.03901 | 52.28767 | 31185 ft | 472 kts | 292° |
| 2026-05-08 04:28 | 26.05365 | 52.25496 | 31410 ft | 473 kts | 292° |
| 2026-05-08 04:28 | 26.06827 | 52.22223 | 31626 ft | 474 kts | 292° |
| 2026-05-08 04:29 | 26.08292 | 52.18938 | 31845 ft | 474 kts | 292° |
| 2026-05-08 04:29 | 26.09758 | 52.15645 | 32037 ft | 475 kts | 291° |
| 2026-05-08 04:29 | 26.11225 | 52.12347 | 32241 ft | 476 kts | 291° |
| 2026-05-08 04:29 | 26.12691 | 52.09047 | 32441 ft | 477 kts | 291° |
| 2026-05-08 04:30 | 26.14160 | 52.05738 | 32712 ft | 476 kts | 291° |
| 2026-05-08 04:30 | 26.15622 | 52.02445 | 33031 ft | 474 kts | 291° |
| 2026-05-08 04:30 | 26.17078 | 51.99164 | 33359 ft | 472 kts | 291° |
| 2026-05-08 04:30 | 26.18535 | 51.95900 | 33698 ft | 470 kts | 291° |
| 2026-05-08 04:31 | 26.20003 | 51.92653 | 34001 ft | 469 kts | 291° |
| 2026-05-08 04:31 | 26.21460 | 51.89406 | 34280 ft | 468 kts | 291° |
| 2026-05-08 04:31 | 26.22895 | 51.86163 | 34539 ft | 467 kts | 291° |
| 2026-05-08 04:31 | 26.24320 | 51.82918 | 34826 ft | 466 kts | 290° |
| 2026-05-08 04:32 | 26.25739 | 51.79680 | 35112 ft | 465 kts | 290° |
| 2026-05-08 04:32 | 26.27166 | 51.76449 | 35405 ft | 464 kts | 291° |
| 2026-05-08 04:32 | 26.28598 | 51.73229 | 35684 ft | 463 kts | 291° |
| 2026-05-08 04:32 | 26.30031 | 51.70018 | 35970 ft | 463 kts | 291° |
| 2026-05-08 04:33 | 26.31463 | 51.66808 | 36266 ft | 462 kts | 291° |
| 2026-05-08 04:33 | 26.32894 | 51.63607 | 36543 ft | 461 kts | 291° |
| 2026-05-08 04:33 | 26.34324 | 51.60408 | 36831 ft | 461 kts | 290° |
| 2026-05-08 04:33 | 26.35730 | 51.57254 | 37129 ft | 460 kts | 290° |
| 2026-05-08 04:34 | 26.37156 | 51.54021 | 37429 ft | 458 kts | 289° |
| 2026-05-08 04:34 | 26.38342 | 51.50798 | 37710 ft | 454 kts | 285° |
| 2026-05-08 04:34 | 26.39444 | 51.47508 | 38003 ft | 452 kts | 284° |
| 2026-05-08 04:34 | 26.40513 | 51.44217 | 38293 ft | 451 kts | 284° |
| 2026-05-08 04:35 | 26.41563 | 51.40929 | 38577 ft | 450 kts | 284° |
| 2026-05-08 04:35 | 26.42606 | 51.37639 | 38793 ft | 449 kts | 284° |
| 2026-05-08 04:35 | 26.43649 | 51.34353 | 38987 ft | 450 kts | 284° |
| 2026-05-08 04:35 | 26.44699 | 51.31058 | 39108 ft | 453 kts | 283° |
| 2026-05-08 04:36 | 26.46814 | 51.24415 | 39423 ft | 454 kts | 283° |
| 2026-05-08 04:36 | 26.47872 | 51.21105 | 39654 ft | 453 kts | 283° |
| 2026-05-08 04:36 | 26.48927 | 51.17795 | 39831 ft | 453 kts | 283° |
| 2026-05-08 04:37 | 26.51031 | 51.11176 | 39878 ft | 452 kts | 283° |
| 2026-05-08 04:37 | 26.53129 | 51.04570 | 39872 ft | 451 kts | 283° |
| 2026-05-08 04:38 | 26.55224 | 50.97963 | 39883 ft | 451 kts | 283° |
| 2026-05-08 04:38 | 26.57316 | 50.91353 | 39880 ft | 451 kts | 283° |
| 2026-05-08 04:39 | 26.59389 | 50.84740 | 39878 ft | 451 kts | 282° |
| 2026-05-08 04:39 | 26.61432 | 50.78114 | 39889 ft | 451 kts | 282° |
| 2026-05-08 04:40 | 26.63472 | 50.71493 | 39895 ft | 451 kts | 282° |
| 2026-05-08 04:40 | 26.65503 | 50.64865 | 39887 ft | 450 kts | 281° |
| 2026-05-08 04:41 | 26.67464 | 50.58224 | 39890 ft | 450 kts | 281° |
| 2026-05-08 04:41 | 26.69412 | 50.51581 | 39894 ft | 450 kts | 281° |
| 2026-05-08 04:42 | 26.71332 | 50.44931 | 39899 ft | 448 kts | 279° |
| 2026-05-08 04:42 | 26.73038 | 50.38241 | 39902 ft | 447 kts | 278° |
| 2026-05-08 04:43 | 26.74072 | 50.31535 | 39902 ft | 435 kts | 266° |
| 2026-05-08 04:43 | 26.73507 | 50.24868 | 39901 ft | 424 kts | 252° |
| 2026-05-08 04:44 | 26.71331 | 50.18813 | 39900 ft | 419 kts | 239° |
| 2026-05-08 04:44 | 26.68450 | 50.13209 | 39893 ft | 419 kts | 237° |
| 2026-05-08 04:45 | 26.65461 | 50.07623 | 39889 ft | 419 kts | 237° |
| 2026-05-08 04:45 | 26.62485 | 50.02026 | 39885 ft | 419 kts | 238° |
| 2026-05-08 04:46 | 26.59525 | 49.96416 | 39887 ft | 419 kts | 238° |
| 2026-05-08 04:46 | 26.56575 | 49.90802 | 39883 ft | 419 kts | 238° |
| 2026-05-08 04:47 | 26.53624 | 49.85198 | 39887 ft | 419 kts | 238° |
| 2026-05-08 04:47 | 26.50697 | 49.79580 | 39883 ft | 419 kts | 240° |
| 2026-05-08 04:48 | 26.48479 | 49.73534 | 39886 ft | 422 kts | 248° |
| 2026-05-08 04:48 | 26.46621 | 49.67315 | 39885 ft | 423 kts | 248° |
| 2026-05-08 04:49 | 26.44814 | 49.61070 | 39885 ft | 423 kts | 248° |
| 2026-05-08 04:49 | 26.42997 | 49.54835 | 39890 ft | 423 kts | 248° |
| 2026-05-08 04:50 | 26.41167 | 49.48608 | 39893 ft | 423 kts | 248° |
| 2026-05-08 04:50 | 26.39340 | 49.42422 | 39901 ft | 422 kts | 248° |
| 2026-05-08 04:51 | 26.37499 | 49.36198 | 39908 ft | 423 kts | 248° |
| 2026-05-08 04:51 | 26.35657 | 49.29979 | 39912 ft | 422 kts | 248° |
| 2026-05-08 04:52 | 26.33812 | 49.23760 | 39918 ft | 422 kts | 248° |
| 2026-05-08 04:52 | 26.31965 | 49.17546 | 39926 ft | 422 kts | 248° |
| 2026-05-08 04:53 | 26.30187 | 49.11303 | 39927 ft | 424 kts | 252° |
| 2026-05-08 04:53 | 26.29299 | 49.04754 | 39928 ft | 429 kts | 259° |
| 2026-05-08 04:54 | 26.28767 | 48.98116 | 39929 ft | 431 kts | 260° |
| 2026-05-08 04:54 | 26.28285 | 48.91463 | 39935 ft | 431 kts | 259° |
| 2026-05-08 04:55 | 26.27789 | 48.84811 | 39942 ft | 431 kts | 259° |
| 2026-05-08 04:55 | 26.27276 | 48.78161 | 39947 ft | 431 kts | 259° |
| 2026-05-08 04:56 | 26.26757 | 48.71515 | 39950 ft | 431 kts | 259° |
| 2026-05-08 04:56 | 26.26237 | 48.64914 | 39954 ft | 431 kts | 259° |
| 2026-05-08 04:57 | 26.25707 | 48.58227 | 39958 ft | 431 kts | 259° |
| 2026-05-08 04:57 | 26.24979 | 48.51679 | 39962 ft | 425 kts | 252° |
| 2026-05-08 04:58 | 26.23066 | 48.45527 | 39958 ft | 419 kts | 243° |
| 2026-05-08 04:58 | 26.20659 | 48.39629 | 39967 ft | 418 kts | 241° |
| 2026-05-08 04:59 | 26.18178 | 48.33774 | 39970 ft | 418 kts | 241° |
| 2026-05-08 04:59 | 26.15706 | 48.27921 | 39973 ft | 418 kts | 242° |
| 2026-05-08 05:00 | 26.13244 | 48.22057 | 39969 ft | 418 kts | 242° |
| 2026-05-08 05:00 | 26.10318 | 48.16514 | 39981 ft | 414 kts | 231° |
| 2026-05-08 05:01 | 26.06526 | 48.11718 | 39976 ft | 413 kts | 226° |
| 2026-05-08 05:01 | 26.02561 | 48.07092 | 39974 ft | 413 kts | 225° |
| 2026-05-08 05:02 | 25.98573 | 48.02486 | 39986 ft | 413 kts | 225° |
| 2026-05-08 05:02 | 25.94597 | 47.97871 | 39976 ft | 413 kts | 225° |
| 2026-05-08 05:03 | 25.90627 | 47.93247 | 39987 ft | 413 kts | 225° |
| 2026-05-08 05:03 | 25.86658 | 47.88624 | 39990 ft | 413 kts | 225° |
| 2026-05-08 05:04 | 25.82688 | 47.84006 | 39987 ft | 413 kts | 225° |
| 2026-05-08 05:04 | 25.79385 | 47.80169 | 39990 ft | 414 kts | 225° |
| 2026-05-08 05:05 | 25.75407 | 47.75551 | 39990 ft | 414 kts | 225° |
| 2026-05-08 05:05 | 25.71430 | 47.70941 | 39993 ft | 414 kts | 225° |
| 2026-05-08 05:06 | 25.67446 | 47.66327 | 39988 ft | 414 kts | 225° |
| 2026-05-08 05:06 | 25.63460 | 47.61715 | 39995 ft | 414 kts | 225° |
| 2026-05-08 05:07 | 25.59470 | 47.57103 | 39998 ft | 415 kts | 225° |
| 2026-05-08 05:07 | 25.55479 | 47.52490 | 40002 ft | 415 kts | 225° |
| 2026-05-08 05:08 | 25.51485 | 47.47882 | 40007 ft | 415 kts | 225° |
| 2026-05-08 05:08 | 25.47487 | 47.43275 | 40006 ft | 415 kts | 225° |
| 2026-05-08 05:09 | 25.43482 | 47.38664 | 40013 ft | 415 kts | 225° |
| 2026-05-08 05:09 | 25.39475 | 47.34055 | 40021 ft | 416 kts | 225° |
| 2026-05-08 05:10 | 25.33463 | 47.27148 | 40023 ft | 415 kts | 225° |
| 2026-05-08 05:11 | 25.29456 | 47.22550 | 40027 ft | 415 kts | 225° |
| 2026-05-08 05:11 | 25.25446 | 47.17953 | 40033 ft | 415 kts | 225° |
| 2026-05-08 05:12 | 25.21434 | 47.13359 | 40035 ft | 415 kts | 225° |
| 2026-05-08 05:12 | 25.17421 | 47.08768 | 40036 ft | 415 kts | 225° |
| 2026-05-08 05:13 | 25.13434 | 47.04211 | 40036 ft | 415 kts | 225° |
| 2026-05-08 05:13 | 25.09418 | 46.99627 | 40037 ft | 416 kts | 225° |
| 2026-05-08 05:14 | 25.05400 | 46.95044 | 40045 ft | 416 kts | 225° |
| 2026-05-08 05:14 | 25.01379 | 46.90463 | 40047 ft | 416 kts | 225° |
| 2026-05-08 05:15 | 24.97358 | 46.85885 | 40047 ft | 416 kts | 224° |
| 2026-05-08 05:15 | 24.93334 | 46.81310 | 40046 ft | 416 kts | 224° |
| 2026-05-08 05:16 | 24.89442 | 46.76592 | 40046 ft | 417 kts | 231° |
| 2026-05-08 05:16 | 24.86472 | 46.71076 | 40047 ft | 421 kts | 239° |
| 2026-05-08 05:17 | 24.83914 | 46.65263 | 40050 ft | 422 kts | 240° |
| 2026-05-08 05:17 | 24.81413 | 46.59410 | 40054 ft | 423 kts | 240° |
| 2026-05-08 05:18 | 24.78896 | 46.53567 | 40053 ft | 422 kts | 240° |
| 2026-05-08 05:18 | 24.76365 | 46.47738 | 40056 ft | 422 kts | 240° |
| 2026-05-08 05:19 | 24.73826 | 46.41916 | 40062 ft | 422 kts | 240° |
| 2026-05-08 05:19 | 24.71285 | 46.36100 | 40059 ft | 422 kts | 240° |
| 2026-05-08 05:20 | 24.68745 | 46.30289 | 40055 ft | 422 kts | 240° |
| 2026-05-08 05:20 | 24.66204 | 46.24483 | 40056 ft | 421 kts | 240° |
| 2026-05-08 05:21 | 24.63679 | 46.18720 | 40056 ft | 421 kts | 240° |
| 2026-05-08 05:21 | 24.61137 | 46.12925 | 40056 ft | 421 kts | 240° |
| 2026-05-08 05:22 | 24.58592 | 46.07131 | 40057 ft | 421 kts | 240° |
| 2026-05-08 05:22 | 24.56045 | 46.01342 | 40053 ft | 421 kts | 240° |
| 2026-05-08 05:23 | 24.53497 | 45.95555 | 40055 ft | 421 kts | 240° |
| 2026-05-08 05:23 | 24.50949 | 45.89775 | 40058 ft | 421 kts | 240° |
| 2026-05-08 05:24 | 24.48399 | 45.83999 | 40060 ft | 420 kts | 240° |
| 2026-05-08 05:24 | 24.45845 | 45.78222 | 40055 ft | 420 kts | 240° |
| 2026-05-08 05:25 | 24.43289 | 45.72453 | 40055 ft | 420 kts | 240° |
| 2026-05-08 05:25 | 24.40727 | 45.66689 | 40056 ft | 420 kts | 240° |
| 2026-05-08 05:26 | 24.38162 | 45.60926 | 40060 ft | 420 kts | 240° |
| 2026-05-08 05:26 | 24.35597 | 45.55167 | 40059 ft | 420 kts | 240° |
| 2026-05-08 05:27 | 24.33030 | 45.49410 | 40063 ft | 420 kts | 240° |
| 2026-05-08 05:27 | 24.30461 | 45.43656 | 40068 ft | 420 kts | 240° |
| 2026-05-08 05:28 | 24.27890 | 45.37904 | 40073 ft | 420 kts | 239° |
| 2026-05-08 05:28 | 24.25314 | 45.32149 | 40072 ft | 420 kts | 239° |
| 2026-05-08 05:29 | 24.22736 | 45.26398 | 40067 ft | 420 kts | 239° |
| 2026-05-08 05:29 | 24.20176 | 45.20692 | 40082 ft | 420 kts | 239° |
| 2026-05-08 05:30 | 24.17594 | 45.14943 | 40087 ft | 420 kts | 239° |
| 2026-05-08 05:30 | 24.15010 | 45.09201 | 40091 ft | 420 kts | 239° |
| 2026-05-08 05:31 | 24.12428 | 45.03466 | 40088 ft | 420 kts | 240° |
| 2026-05-08 05:31 | 24.09844 | 44.97737 | 40095 ft | 419 kts | 239° |
| 2026-05-08 05:32 | 24.07261 | 44.92016 | 40097 ft | 419 kts | 240° |
| 2026-05-08 05:32 | 24.04676 | 44.86299 | 40101 ft | 419 kts | 240° |
| 2026-05-08 05:33 | 24.02091 | 44.80586 | 40100 ft | 419 kts | 240° |
| 2026-05-08 05:33 | 23.99503 | 44.74875 | 40112 ft | 419 kts | 240° |
| 2026-05-08 05:34 | 23.96913 | 44.69165 | 40110 ft | 419 kts | 240° |
| 2026-05-08 05:34 | 23.94322 | 44.63463 | 40100 ft | 419 kts | 240° |
| 2026-05-08 05:35 | 23.92190 | 44.57506 | 40107 ft | 425 kts | 250° |
| 2026-05-08 05:35 | 23.90749 | 44.51232 | 40099 ft | 426 kts | 251° |
| 2026-05-08 05:36 | 23.89423 | 44.44919 | 40096 ft | 426 kts | 252° |
| 2026-05-08 05:36 | 23.88089 | 44.38565 | 40094 ft | 433 kts | 252° |
| 2026-05-08 05:37 | 23.86716 | 44.32116 | 40090 ft | 436 kts | 252° |
| 2026-05-08 05:37 | 23.85338 | 44.25671 | 40088 ft | 436 kts | 252° |
| 2026-05-08 05:38 | 23.83956 | 44.19231 | 40086 ft | 435 kts | 251° |
| 2026-05-08 05:38 | 23.82584 | 44.12854 | 40087 ft | 434 kts | 252° |
| 2026-05-08 05:39 | 23.81200 | 44.06442 | 40089 ft | 433 kts | 251° |
| 2026-05-08 05:39 | 23.79814 | 44.00035 | 40085 ft | 433 kts | 251° |
| 2026-05-08 05:40 | 23.78427 | 43.93634 | 40085 ft | 433 kts | 251° |
| 2026-05-08 05:40 | 23.77039 | 43.87235 | 40089 ft | 433 kts | 252° |
| 2026-05-08 05:41 | 23.75643 | 43.80844 | 40093 ft | 433 kts | 251° |
| 2026-05-08 05:41 | 23.74236 | 43.74455 | 40094 ft | 433 kts | 251° |
| 2026-05-08 05:42 | 23.72828 | 43.68071 | 40097 ft | 433 kts | 251° |
| 2026-05-08 05:42 | 23.71423 | 43.61693 | 40100 ft | 432 kts | 251° |
| 2026-05-08 05:43 | 23.70015 | 43.55320 | 40101 ft | 432 kts | 251° |
| 2026-05-08 05:43 | 23.68604 | 43.48944 | 40104 ft | 432 kts | 251° |
| 2026-05-08 05:44 | 23.67191 | 43.42575 | 40108 ft | 432 kts | 251° |
| 2026-05-08 05:44 | 23.65777 | 43.36209 | 40114 ft | 432 kts | 251° |
| 2026-05-08 05:45 | 23.64359 | 43.29840 | 40111 ft | 432 kts | 251° |
| 2026-05-08 05:45 | 23.62939 | 43.23479 | 40111 ft | 432 kts | 251° |
| 2026-05-08 05:46 | 23.61517 | 43.17118 | 40117 ft | 432 kts | 251° |
| 2026-05-08 05:46 | 23.60092 | 43.10760 | 40115 ft | 432 kts | 251° |
| 2026-05-08 05:47 | 23.58672 | 43.04439 | 40116 ft | 432 kts | 251° |
| 2026-05-08 05:47 | 23.57242 | 42.98082 | 40108 ft | 432 kts | 251° |
| 2026-05-08 05:48 | 23.55809 | 42.91723 | 40110 ft | 432 kts | 251° |
| 2026-05-08 05:48 | 23.54372 | 42.85366 | 40104 ft | 432 kts | 251° |
| 2026-05-08 05:49 | 23.52933 | 42.79008 | 40104 ft | 432 kts | 251° |
| 2026-05-08 05:49 | 23.51490 | 42.72646 | 40104 ft | 432 kts | 251° |
| 2026-05-08 05:50 | 23.50046 | 42.66286 | 40101 ft | 432 kts | 251° |
| 2026-05-08 05:50 | 23.48599 | 42.59927 | 40099 ft | 432 kts | 251° |
| 2026-05-08 05:51 | 23.47151 | 42.53574 | 40093 ft | 432 kts | 251° |
| 2026-05-08 05:51 | 23.45700 | 42.47225 | 40092 ft | 432 kts | 251° |
| 2026-05-08 05:52 | 23.44247 | 42.40879 | 40095 ft | 432 kts | 251° |
| 2026-05-08 05:52 | 23.42793 | 42.34537 | 40088 ft | 432 kts | 251° |
| 2026-05-08 05:53 | 23.41582 | 42.29268 | 40088 ft | 431 kts | 251° |
| 2026-05-08 05:53 | 23.40124 | 42.22935 | 40083 ft | 431 kts | 251° |
| 2026-05-08 05:54 | 23.38663 | 42.16604 | 40080 ft | 431 kts | 251° |
| 2026-05-08 05:54 | 23.37200 | 42.10273 | 40080 ft | 431 kts | 251° |
| 2026-05-08 05:55 | 23.35735 | 42.03948 | 40079 ft | 431 kts | 251° |
| 2026-05-08 05:55 | 23.34267 | 41.97619 | 40076 ft | 431 kts | 251° |
| 2026-05-08 05:56 | 23.32798 | 41.91299 | 40075 ft | 431 kts | 251° |
| 2026-05-08 05:56 | 23.31327 | 41.84984 | 40073 ft | 431 kts | 251° |
| 2026-05-08 05:57 | 23.29854 | 41.78674 | 40074 ft | 430 kts | 251° |
| 2026-05-08 05:57 | 23.28128 | 41.72474 | 40076 ft | 426 kts | 244° |
| 2026-05-08 05:58 | 23.25311 | 41.66856 | 40073 ft | 422 kts | 236° |
| 2026-05-08 05:58 | 23.22156 | 41.61466 | 40077 ft | 422 kts | 235° |
| 2026-05-08 05:59 | 23.18954 | 41.56113 | 40077 ft | 423 kts | 235° |
| 2026-05-08 05:59 | 23.15759 | 41.50752 | 40075 ft | 423 kts | 235° |
| 2026-05-08 06:00 | 23.12597 | 41.45420 | 40079 ft | 421 kts | 235° |
| 2026-05-08 06:00 | 23.11023 | 41.42762 | 39931 ft | 415 kts | 235° |
| 2026-05-08 06:00 | 23.09472 | 41.40144 | 39694 ft | 411 kts | 236° |
| 2026-05-08 06:00 | 23.07926 | 41.37537 | 39476 ft | 410 kts | 236° |
| 2026-05-08 06:01 | 23.06381 | 41.34934 | 39251 ft | 410 kts | 236° |
| 2026-05-08 06:01 | 23.04836 | 41.32334 | 39018 ft | 410 kts | 236° |
| 2026-05-08 06:01 | 23.03291 | 41.29734 | 38791 ft | 410 kts | 236° |
| 2026-05-08 06:01 | 23.01747 | 41.27139 | 38536 ft | 410 kts | 236° |
| 2026-05-08 06:02 | 23.00200 | 41.24536 | 38265 ft | 410 kts | 236° |
| 2026-05-08 06:02 | 22.98652 | 41.21934 | 37984 ft | 411 kts | 235° |
| 2026-05-08 06:02 | 22.97098 | 41.19323 | 37732 ft | 412 kts | 235° |
| 2026-05-08 06:02 | 22.95543 | 41.16712 | 37463 ft | 413 kts | 235° |
| 2026-05-08 06:03 | 22.93981 | 41.14092 | 37198 ft | 414 kts | 235° |
| 2026-05-08 06:03 | 22.92418 | 41.11470 | 36953 ft | 414 kts | 235° |
| 2026-05-08 06:03 | 22.90851 | 41.08844 | 36708 ft | 415 kts | 235° |
| 2026-05-08 06:03 | 22.89278 | 41.06209 | 36450 ft | 416 kts | 235° |
| 2026-05-08 06:04 | 22.87703 | 41.03572 | 36199 ft | 417 kts | 235° |
| 2026-05-08 06:04 | 22.86126 | 41.00932 | 35958 ft | 418 kts | 235° |
| 2026-05-08 06:04 | 22.84545 | 40.98285 | 35719 ft | 419 kts | 235° |
| 2026-05-08 06:04 | 22.82959 | 40.95637 | 35481 ft | 419 kts | 234° |
| 2026-05-08 06:05 | 22.81374 | 40.92994 | 35121 ft | 416 kts | 234° |
| 2026-05-08 06:05 | 22.79803 | 40.90373 | 34499 ft | 414 kts | 234° |
| 2026-05-08 06:05 | 22.78230 | 40.87752 | 33762 ft | 415 kts | 234° |
| 2026-05-08 06:05 | 22.76653 | 40.85129 | 33013 ft | 415 kts | 235° |
| 2026-05-08 06:06 | 22.75078 | 40.82509 | 32286 ft | 416 kts | 236° |
| 2026-05-08 06:06 | 22.73498 | 40.79881 | 31536 ft | 417 kts | 236° |
| 2026-05-08 06:06 | 22.71912 | 40.77244 | 30764 ft | 419 kts | 237° |
| 2026-05-08 06:06 | 22.70312 | 40.74583 | 29945 ft | 425 kts | 237° |
| 2026-05-08 06:07 | 22.68694 | 40.71891 | 29113 ft | 429 kts | 237° |
| 2026-05-08 06:07 | 22.67070 | 40.69190 | 28557 ft | 428 kts | 238° |
| 2026-05-08 06:07 | 22.65449 | 40.66497 | 27989 ft | 425 kts | 238° |
| 2026-05-08 06:07 | 22.63842 | 40.63828 | 27410 ft | 421 kts | 238° |
| 2026-05-08 06:08 | 22.62248 | 40.61183 | 26812 ft | 419 kts | 238° |
| 2026-05-08 06:08 | 22.60660 | 40.58550 | 26240 ft | 417 kts | 238° |
| 2026-05-08 06:08 | 22.59099 | 40.55962 | 25662 ft | 414 kts | 238° |
| 2026-05-08 06:08 | 22.57529 | 40.53361 | 25078 ft | 412 kts | 239° |
| 2026-05-08 06:09 | 22.55968 | 40.50775 | 24508 ft | 410 kts | 239° |
| 2026-05-08 06:09 | 22.54408 | 40.48194 | 23934 ft | 408 kts | 239° |
| 2026-05-08 06:09 | 22.52859 | 40.45631 | 23306 ft | 406 kts | 239° |
| 2026-05-08 06:09 | 22.51322 | 40.43082 | 22710 ft | 403 kts | 239° |
| 2026-05-08 06:10 | 22.49795 | 40.40552 | 22127 ft | 400 kts | 238° |
| 2026-05-08 06:10 | 22.48281 | 40.38047 | 21553 ft | 396 kts | 238° |
| 2026-05-08 06:10 | 22.46777 | 40.35561 | 20978 ft | 393 kts | 237° |
| 2026-05-08 06:10 | 22.45283 | 40.33094 | 20406 ft | 391 kts | 237° |
| 2026-05-08 06:11 | 22.43801 | 40.30647 | 19822 ft | 388 kts | 236° |
| 2026-05-08 06:11 | 22.42359 | 40.28268 | 19255 ft | 386 kts | 236° |
| 2026-05-08 06:11 | 22.40892 | 40.25849 | 18666 ft | 384 kts | 235° |
| 2026-05-08 06:11 | 22.39427 | 40.23436 | 18038 ft | 383 kts | 235° |
| 2026-05-08 06:12 | 22.37965 | 40.21036 | 17411 ft | 381 kts | 235° |
| 2026-05-08 06:12 | 22.36605 | 40.18805 | 16864 ft | 378 kts | 235° |
| 2026-05-08 06:12 | 22.35164 | 40.16437 | 16247 ft | 376 kts | 236° |
| 2026-05-08 06:12 | 22.33729 | 40.14081 | 15630 ft | 375 kts | 236° |
| 2026-05-08 06:13 | 22.32299 | 40.11732 | 15025 ft | 374 kts | 236° |
| 2026-05-08 06:13 | 22.30875 | 40.09394 | 14426 ft | 373 kts | 236° |
| 2026-05-08 06:13 | 22.29458 | 40.07066 | 14031 ft | 364 kts | 236° |
| 2026-05-08 06:13 | 22.28102 | 40.04836 | 13928 ft | 348 kts | 236° |
| 2026-05-08 06:14 | 22.26802 | 40.02700 | 13834 ft | 332 kts | 236° |
| 2026-05-08 06:14 | 22.25558 | 40.00660 | 13670 ft | 318 kts | 236° |
| 2026-05-08 06:14 | 22.24367 | 39.98708 | 13545 ft | 305 kts | 236° |
| 2026-05-08 06:14 | 22.23220 | 39.96826 | 13385 ft | 295 kts | 236° |
| 2026-05-08 06:15 | 22.22115 | 39.95013 | 13238 ft | 284 kts | 236° |
| 2026-05-08 06:15 | 22.21047 | 39.93260 | 13121 ft | 275 kts | 236° |
| 2026-05-08 06:15 | 22.19994 | 39.91542 | 12788 ft | 275 kts | 236° |
| 2026-05-08 06:15 | 22.18774 | 39.89971 | 12477 ft | 274 kts | 221° |
| 2026-05-08 06:16 | 22.17147 | 39.88932 | 12152 ft | 273 kts | 200° |
| 2026-05-08 06:16 | 22.15254 | 39.88663 | 12063 ft | 285 kts | 178° |
| 2026-05-08 06:16 | 22.13290 | 39.89198 | 12055 ft | 298 kts | 158° |
| 2026-05-08 06:16 | 22.11407 | 39.90175 | 12052 ft | 301 kts | 155° |
| 2026-05-08 06:17 | 22.07604 | 39.92051 | 12049 ft | 300 kts | 166° |
| 2026-05-08 06:17 | 22.05590 | 39.92595 | 12046 ft | 299 kts | 169° |
| 2026-05-08 06:17 | 22.03557 | 39.93082 | 12042 ft | 299 kts | 169° |
| 2026-05-08 06:18 | 22.01530 | 39.93565 | 12046 ft | 299 kts | 169° |
| 2026-05-08 06:18 | 21.99499 | 39.94043 | 12050 ft | 298 kts | 170° |
| 2026-05-08 06:18 | 21.97443 | 39.94262 | 12043 ft | 297 kts | 181° |
| 2026-05-08 06:18 | 21.95408 | 39.94233 | 12040 ft | 296 kts | 183° |
| 2026-05-08 06:19 | 21.93319 | 39.94166 | 12043 ft | 296 kts | 183° |
| 2026-05-08 06:19 | 21.91292 | 39.93830 | 12040 ft | 295 kts | 199° |
| 2026-05-08 06:19 | 21.89535 | 39.92741 | 12037 ft | 293 kts | 223° |
| 2026-05-08 06:19 | 21.88346 | 39.90976 | 12030 ft | 294 kts | 245° |
| 2026-05-08 06:20 | 21.87919 | 39.88832 | 11928 ft | 297 kts | 269° |
| 2026-05-08 06:20 | 21.88347 | 39.86663 | 11779 ft | 300 kts | 292° |
| 2026-05-08 06:20 | 21.89313 | 39.84667 | 11617 ft | 301 kts | 293° |
| 2026-05-08 06:20 | 21.89909 | 39.82519 | 11460 ft | 299 kts | 279° |
| 2026-05-08 06:21 | 21.90242 | 39.80314 | 11298 ft | 298 kts | 277° |
| 2026-05-08 06:21 | 21.90536 | 39.78106 | 11146 ft | 298 kts | 277° |
| 2026-05-08 06:21 | 21.90828 | 39.75895 | 10996 ft | 298 kts | 277° |
| 2026-05-08 06:21 | 21.91121 | 39.73688 | 10834 ft | 298 kts | 277° |
| 2026-05-08 06:22 | 21.91415 | 39.71479 | 10677 ft | 298 kts | 277° |
| 2026-05-08 06:22 | 21.91708 | 39.69274 | 10509 ft | 297 kts | 277° |
| 2026-05-08 06:22 | 21.92002 | 39.67071 | 10364 ft | 297 kts | 277° |
| 2026-05-08 06:22 | 21.92294 | 39.64871 | 10201 ft | 297 kts | 277° |
| 2026-05-08 06:23 | 21.92587 | 39.62674 | 10053 ft | 296 kts | 277° |
| 2026-05-08 06:23 | 21.92879 | 39.60478 | 9900 ft | 296 kts | 277° |
| 2026-05-08 06:23 | 21.93170 | 39.58283 | 9737 ft | 296 kts | 277° |
| 2026-05-08 06:23 | 21.93461 | 39.56088 | 9574 ft | 296 kts | 277° |
| 2026-05-08 06:24 | 21.93751 | 39.53898 | 9418 ft | 295 kts | 277° |
| 2026-05-08 06:24 | 21.94039 | 39.51710 | 9263 ft | 295 kts | 277° |
| 2026-05-08 06:24 | 21.94053 | 39.49516 | 9117 ft | 293 kts | 259° |
| 2026-05-08 06:24 | 21.93410 | 39.47488 | 8975 ft | 290 kts | 244° |
| 2026-05-08 06:25 | 21.92530 | 39.45524 | 8801 ft | 290 kts | 243° |
| 2026-05-08 06:25 | 21.91636 | 39.43574 | 8651 ft | 290 kts | 243° |
| 2026-05-08 06:25 | 21.90751 | 39.41623 | 8500 ft | 290 kts | 243° |
| 2026-05-08 06:25 | 21.89872 | 39.39673 | 8353 ft | 290 kts | 243° |
| 2026-05-08 06:26 | 21.88997 | 39.37722 | 8197 ft | 289 kts | 243° |
| 2026-05-08 06:26 | 21.88126 | 39.35774 | 8036 ft | 289 kts | 244° |
| 2026-05-08 06:26 | 21.87257 | 39.33827 | 7886 ft | 288 kts | 244° |
| 2026-05-08 06:26 | 21.86388 | 39.31885 | 7740 ft | 288 kts | 243° |
| 2026-05-08 06:27 | 21.85521 | 39.29946 | 7595 ft | 287 kts | 244° |
| 2026-05-08 06:27 | 21.84671 | 39.28040 | 7473 ft | 277 kts | 244° |
| 2026-05-08 06:27 | 21.83855 | 39.26212 | 7350 ft | 265 kts | 244° |
| 2026-05-08 06:27 | 21.83059 | 39.24467 | 7220 ft | 255 kts | 241° |
| 2026-05-08 06:28 | 21.81948 | 39.23050 | 7061 ft | 245 kts | 213° |
| 2026-05-08 06:28 | 21.80379 | 39.22508 | 6864 ft | 237 kts | 180° |
| 2026-05-08 06:28 | 21.78780 | 39.22860 | 6626 ft | 236 kts | 161° |
| 2026-05-08 06:28 | 21.77237 | 39.23476 | 6395 ft | 237 kts | 159° |
| 2026-05-08 06:29 | 21.75674 | 39.24123 | 6156 ft | 237 kts | 159° |
| 2026-05-08 06:29 | 21.74153 | 39.24742 | 5957 ft | 237 kts | 159° |
| 2026-05-08 06:29 | 21.72610 | 39.25361 | 5729 ft | 236 kts | 159° |
| 2026-05-08 06:29 | 21.71068 | 39.25971 | 5504 ft | 236 kts | 159° |
| 2026-05-08 06:30 | 21.69517 | 39.26588 | 5329 ft | 239 kts | 159° |
| 2026-05-08 06:30 | 21.67961 | 39.27208 | 5088 ft | 237 kts | 159° |
| 2026-05-08 06:30 | 21.66419 | 39.27820 | 4848 ft | 236 kts | 160° |
| 2026-05-08 06:30 | 21.64876 | 39.28426 | 4623 ft | 236 kts | 159° |
| 2026-05-08 06:31 | 21.63339 | 39.29033 | 4387 ft | 235 kts | 159° |
| 2026-05-08 06:31 | 21.61801 | 39.29651 | 4152 ft | 236 kts | 158° |
| 2026-05-08 06:31 | 21.60255 | 39.30258 | 4021 ft | 235 kts | 159° |
| 2026-05-08 06:31 | 21.58702 | 39.30858 | 4004 ft | 238 kts | 158° |
| 2026-05-08 06:32 | 21.57153 | 39.31465 | 4000 ft | 237 kts | 158° |
| 2026-05-08 06:32 | 21.55600 | 39.32073 | 3996 ft | 237 kts | 158° |
| 2026-05-08 06:32 | 21.54053 | 39.32680 | 3999 ft | 236 kts | 158° |
| 2026-05-08 06:32 | 21.52507 | 39.33285 | 4002 ft | 236 kts | 159° |
| 2026-05-08 06:33 | 21.50966 | 39.33890 | 4003 ft | 236 kts | 159° |
| 2026-05-08 06:33 | 21.49425 | 39.34491 | 3954 ft | 234 kts | 159° |
| 2026-05-08 06:33 | 21.47887 | 39.35088 | 3568 ft | 238 kts | 158° |
| 2026-05-08 06:33 | 21.46310 | 39.35705 | 3177 ft | 243 kts | 157° |
| 2026-05-08 06:34 | 21.44743 | 39.36323 | 3024 ft | 236 kts | 157° |
| 2026-05-08 06:34 | 21.43200 | 39.36930 | 3023 ft | 236 kts | 158° |
| 2026-05-08 06:34 | 21.41659 | 39.37540 | 3035 ft | 235 kts | 157° |
| 2026-05-08 06:34 | 21.40140 | 39.38142 | 3043 ft | 232 kts | 157° |
| 2026-05-08 06:35 | 21.38616 | 39.38740 | 3038 ft | 233 kts | 157° |
| 2026-05-08 06:35 | 21.37075 | 39.39291 | 3029 ft | 234 kts | 163° |
| 2026-05-08 06:35 | 21.35454 | 39.39293 | 3044 ft | 239 kts | 195° |
| 2026-05-08 06:35 | 21.34107 | 39.38315 | 3029 ft | 236 kts | 233° |
| 2026-05-08 06:36 | 21.33391 | 39.36762 | 3032 ft | 231 kts | 252° |
| 2026-05-08 06:36 | 21.32871 | 39.35125 | 3028 ft | 232 kts | 254° |
| 2026-05-08 06:36 | 21.32563 | 39.33441 | 3022 ft | 230 kts | 271° |
| 2026-05-08 06:36 | 21.32990 | 39.31854 | 3016 ft | 220 kts | 307° |
| 2026-05-08 06:37 | 21.34126 | 39.30800 | 3038 ft | 216 kts | 336° |
| 2026-05-08 06:37 | 21.35504 | 39.30187 | 3021 ft | 214 kts | 342° |
| 2026-05-08 06:37 | 21.36914 | 39.29669 | 3016 ft | 214 kts | 343° |
| 2026-05-08 06:37 | 21.38320 | 39.29154 | 3003 ft | 214 kts | 342° |
| 2026-05-08 06:38 | 21.39732 | 39.28621 | 2997 ft | 216 kts | 343° |
| 2026-05-08 06:38 | 21.40668 | 39.28262 | 2996 ft | 216 kts | 342° |
| 2026-05-08 06:38 | 21.42077 | 39.27709 | 2985 ft | 215 kts | 342° |
| 2026-05-08 06:38 | 21.43473 | 39.27161 | 2982 ft | 214 kts | 342° |
| 2026-05-08 06:39 | 21.44883 | 39.26612 | 2977 ft | 217 kts | 342° |
| 2026-05-08 06:39 | 21.46303 | 39.26060 | 2971 ft | 217 kts | 342° |
| 2026-05-08 06:39 | 21.47716 | 39.25509 | 2928 ft | 216 kts | 342° |
| 2026-05-08 06:39 | 21.49125 | 39.24957 | 2930 ft | 214 kts | 342° |
| 2026-05-08 06:40 | 21.50515 | 39.24412 | 2918 ft | 212 kts | 342° |
| 2026-05-08 06:40 | 21.51910 | 39.23865 | 2918 ft | 215 kts | 342° |
| 2026-05-08 06:40 | 21.53315 | 39.23302 | 2809 ft | 216 kts | 341° |
| 2026-05-08 06:40 | 21.54720 | 39.22733 | 2496 ft | 215 kts | 342° |
| 2026-05-08 06:41 | 21.56097 | 39.22201 | 2177 ft | 204 kts | 341° |
| 2026-05-08 06:41 | 21.57382 | 39.21693 | 1917 ft | 188 kts | 341° |
| 2026-05-08 06:41 | 21.58574 | 39.21224 | 1687 ft | 177 kts | 341° |
| 2026-05-08 06:41 | 21.59699 | 39.20783 | 1453 ft | 166 kts | 342° |
| 2026-05-08 06:42 | 21.60727 | 39.20379 | 1237 ft | 148 kts | 342° |
| 2026-05-08 06:42 | 21.61644 | 39.20017 | 1074 ft | 136 kts | 342° |
| 2026-05-08 06:42 | 21.62527 | 39.19660 | 938 ft | 136 kts | 342° |
| 2026-05-08 06:42 | 21.63426 | 39.19297 | 785 ft | 139 kts | 342° |
| 2026-05-08 06:43 | 21.64354 | 39.18958 | 632 ft | 142 kts | 340° |
| 2026-05-08 06:43 | 21.65282 | 39.18599 | 426 ft | 142 kts | 338° |
| 2026-05-08 06:43 | 21.66196 | 39.18231 | 225 ft | 137 kts | 339° |
| 2026-05-08 06:43 | 21.67038 | 39.17888 | 88 ft | 123 kts | 340° |
| 2026-05-08 06:44 | 21.67779 | 39.17599 | 52 ft | 99 kts | 340° |
| 2026-05-08 06:44 | 21.68182 | 39.17441 | 48 ft | 17 kts | 334° |
| 2026-05-08 06:44 | 21.68193 | 39.17435 | 49 ft | 0 kts | 333° |
| 2026-05-08 06:44 | 21.68207 | 39.17427 | 52 ft | 6 kts | 330° |
| 2026-05-08 06:45 | 21.68265 | 39.17385 | 48 ft | 14 kts | 324° |
| 2026-05-08 06:45 | 21.68353 | 39.17294 | 52 ft | 21 kts | 310° |
| 2026-05-08 06:45 | 21.68419 | 39.17192 | 51 ft | 15 kts | 286° |
| 2026-05-08 06:45 | 21.68352 | 39.17145 | 50 ft | 17 kts | 166° |
| 2026-05-08 06:46 | 21.68223 | 39.17194 | 47 ft | 23 kts | 160° |
| 2026-05-08 06:46 | 21.68054 | 39.17261 | 50 ft | 29 kts | 161° |
| 2026-05-08 06:46 | 21.67846 | 39.17342 | 50 ft | 34 kts | 160° |
| 2026-05-08 06:46 | 21.67605 | 39.17438 | 55 ft | 39 kts | 159° |
| 2026-05-08 06:47 | 21.67389 | 39.17526 | 53 ft | 25 kts | 159° |
| 2026-05-08 06:47 | 21.67288 | 39.17563 | 53 ft | 11 kts | 168° |
| 2026-05-08 06:47 | 21.67223 | 39.17519 | 55 ft | 14 kts | 238° |
| 2026-05-08 06:47 | 21.67184 | 39.17425 | 55 ft | 12 kts | 239° |
| 2026-05-08 06:48 | 21.67145 | 39.17373 | 51 ft | 8 kts | 229° |
| 2026-05-08 06:48 | 21.67143 | 39.17322 | 52 ft | 6 kts | 300° |
| 2026-05-08 06:48 | 21.67152 | 39.17314 | 51 ft | 2 kts | 321° |
| 2026-05-08 06:48 | 21.67178 | 39.17293 | 51 ft | 4 kts | 323° |
| 2026-05-08 06:49 | 21.67185 | 39.17287 | 51 ft | 0 kts | 323° |